Academia, Pennsylvania
Current Conditions -  °F | °C
As of 12:55 AM on Sunday 26 Oct 2014 (Local Time) from KUNV Reporting Station
Clear Clear  
Wind Chill: 58°   Ceiling: Unl
Heat Index: 58°   Visibility: 10mi
Dew Point: 39°   Wind: 18mph
Humidity: 49%   Direction: 270°W
Pressure: 29.67"   Gusts: 24mph
Location:  40.4991°N, 77.4687°W
Report Text: KUNV 260455Z AUTO 27016G21KT 10SM CLR 14/04 A2967 RMK AO2 T01440038
Loading
Personal Weather Stations






























Interactive Weather Map
Tropical Storm Tracking
New forecast layout! Learn more

10-Day Weather Forecast

Advertisements
Track Severe Weather on mobile